Time;durP1;ratioP1;P1;durP2;ratioP2;P2;SDS_P1;SDS_P2;PMS_P1;PMS_P2;Temp;Humidity;BMP_temperature;BMP_pressure;BME280_temperature;BME280_humidity;BME280_pressure;Samples;Min_cycle;Max_cycle;Signal;HPM_P1;HPM_P2
2023/07/10 00:01:01;;;;;;;12.80;9.27;;;21.30;99.90;;;;;;5048425;28;20134;-42
2023/07/10 00:03:28;;;;;;;12.85;9.93;;;21.20;99.90;;;;;;5049082;28;20094;-42
2023/07/10 00:05:55;;;;;;;11.35;8.32;;;21.10;99.90;;;;;;5048768;28;20009;-42
2023/07/10 00:08:20;;;;;;;7.25;6.05;;;21.10;99.90;;;;;;5047876;28;20048;-42
2023/07/10 00:10:46;;;;;;;9.95;8.05;;;21.10;99.90;;;;;;5048705;28;20017;-41
2023/07/10 00:13:13;;;;;;;11.40;7.97;;;21.10;99.90;;;;;;5048499;28;20021;-41
2023/07/10 00:15:40;;;;;;;11.73;8.05;;;21.00;99.90;;;;;;5048114;28;20033;-41
2023/07/10 00:18:17;;;;;;;9.60;6.88;;;21.00;99.90;;;;;;5048997;28;20025;-41
2023/07/10 00:20:47;;;;;;;7.68;6.60;;;21.00;99.90;;;;;;5048232;28;20476;-42
2023/07/10 00:23:13;;;;;;;8.70;6.25;;;21.00;99.90;;;;;;5048073;28;20025;-41
2023/07/10 00:25:42;;;;;;;7.13;5.93;;;21.10;99.90;;;;;;5048999;28;20112;-41
2023/07/10 00:28:19;;;;;;;9.15;6.22;;;21.10;99.90;;;;;;5047717;28;20598;-41
2023/07/10 00:30:49;;;;;;;10.57;8.05;;;21.20;99.90;;;;;;5047636;28;20086;-41
2023/07/10 00:33:17;;;;;;;11.07;6.65;;;21.20;99.90;;;;;;5047997;28;20404;-42
2023/07/10 00:35:47;;;;;;;12.55;7.55;;;21.20;99.90;;;;;;5047553;28;20831;-40
2023/07/10 00:38:28;;;;;;;8.05;6.57;;;21.10;99.90;;;;;;5048118;28;20105;-42
2023/07/10 00:41:04;;;;;;;9.77;7.57;;;21.10;99.90;;;;;;5048428;28;20062;-43
2023/07/10 00:43:39;;;;;;;11.60;7.60;;;21.10;99.90;;;;;;5047638;28;20033;-42
2023/07/10 00:46:14;;;;;;;10.10;7.63;;;21.00;99.90;;;;;;5047337;28;20784;-42
2023/07/10 00:48:50;;;;;;;7.88;6.00;;;21.00;99.90;;;;;;5047468;28;20029;-42
2023/07/10 00:51:22;;;;;;;8.27;6.55;;;21.00;99.90;;;;;;5047528;28;20078;-42
2023/07/10 00:53:49;;;;;;;8.32;6.57;;;21.00;99.90;;;;;;5048060;28;20033;-42
2023/07/10 00:56:18;;;;;;;7.55;5.60;;;21.00;99.90;;;;;;5047706;28;20032;-42
2023/07/10 00:58:45;;;;;;;8.43;6.95;;;21.00;99.90;;;;;;5046673;28;20379;-42
2023/07/10 01:01:22;;;;;;;6.95;5.55;;;21.00;99.90;;;;;;5047774;28;20021;-42
2023/07/10 01:03:52;;;;;;;8.55;5.50;;;21.00;99.90;;;;;;5045485;28;20040;-42
2023/07/10 01:06:36;;;;;;;8.35;6.00;;;21.10;99.90;;;;;;5046313;28;20025;-42
2023/07/10 01:09:04;;;;;;;10.40;6.60;;;21.00;99.90;;;;;;5047606;28;20045;-42
2023/07/10 01:11:31;;;;;;;6.82;4.78;;;21.10;99.90;;;;;;5047392;28;20020;-42
2023/07/10 01:13:58;;;;;;;6.57;4.90;;;21.00;99.90;;;;;;5047314;28;20041;-43
2023/07/10 01:16:27;;;;;;;11.98;7.30;;;21.10;99.90;;;;;;5047744;28;20036;-42
2023/07/10 01:19:11;;;;;;;10.15;6.60;;;21.00;99.90;;;;;;5046903;28;20476;-41
2023/07/10 01:21:38;;;;;;;9.27;6.47;;;20.80;99.90;;;;;;5047249;28;20115;-42
2023/07/10 01:24:06;;;;;;;7.15;5.32;;;20.80;99.90;;;;;;5046841;28;20826;-42
2023/07/10 01:26:34;;;;;;;7.47;5.25;;;20.70;99.90;;;;;;5046512;28;20724;-42
2023/07/10 01:29:01;;;;;;;9.27;6.25;;;20.70;99.90;;;;;;5046945;28;20095;-42
2023/07/10 01:31:28;;;;;;;6.90;5.60;;;20.60;99.90;;;;;;5047398;28;20059;-42
2023/07/10 01:34:04;;;;;;;5.70;4.50;;;20.50;99.90;;;;;;5045746;28;20029;-41
2023/07/10 01:36:34;;;;;;;7.88;5.72;;;20.50;99.90;;;;;;5047238;28;20041;-41
2023/07/10 01:39:09;;;;;;;7.25;4.18;;;20.50;99.90;;;;;;5045736;28;20017;-42
2023/07/10 01:41:38;;;;;;;7.28;4.60;;;20.40;99.90;;;;;;5047034;28;20485;-41
2023/07/10 01:44:33;;;;;;;5.05;3.67;;;20.40;99.90;;;;;;5046548;28;20040;-43
2023/07/10 01:47:01;;;;;;;8.30;4.10;;;20.40;99.90;;;;;;5038280;28;20465;-42
2023/07/10 01:49:36;;;;;;;4.95;3.35;;;20.40;99.90;;;;;;5046794;28;20082;-42
2023/07/10 01:52:08;;;;;;;4.07;3.33;;;20.40;99.90;;;;;;5046931;28;20481;-42
2023/07/10 01:54:34;;;;;;;4.78;2.72;;;20.40;99.90;;;;;;5045745;28;20047;-42
2023/07/10 01:56:59;;;;;;;3.55;2.85;;;20.40;99.90;;;;;;5046155;28;20475;-43
2023/07/10 01:59:25;;;;;;;5.18;2.90;;;20.40;99.90;;;;;;5046531;28;20021;-43
2023/07/10 02:01:55;;;;;;;5.07;2.78;;;20.40;99.90;;;;;;5045826;28;20448;-42
2023/07/10 02:04:21;;;;;;;3.20;2.55;;;20.40;99.90;;;;;;5046710;28;20040;-42
2023/07/10 02:06:47;;;;;;;4.72;2.20;;;20.50;99.90;;;;;;5046328;28;20045;-43
2023/07/10 02:09:13;;;;;;;3.65;2.50;;;20.50;99.90;;;;;;5047058;28;20404;-43
2023/07/10 02:11:38;;;;;;;3.83;2.63;;;20.50;99.90;;;;;;5046066;28;20860;-43
2023/07/10 02:14:06;;;;;;;3.28;2.60;;;20.50;99.90;;;;;;5045323;28;20079;-42
2023/07/10 02:16:32;;;;;;;3.08;2.50;;;20.50;99.90;;;;;;5045577;28;20056;-42
2023/07/10 02:18:59;;;;;;;4.18;2.10;;;20.50;99.90;;;;;;5047166;28;20059;-42
2023/07/10 02:21:25;;;;;;;5.10;2.13;;;20.50;99.90;;;;;;5045764;28;20029;-42
2023/07/10 02:23:51;;;;;;;2.45;2.20;;;20.50;99.90;;;;;;5046200;28;20802;-42
2023/07/10 02:26:17;;;;;;;4.07;2.40;;;20.50;99.90;;;;;;5045965;28;20053;-42
2023/07/10 02:28:44;;;;;;;3.33;2.13;;;20.50;99.90;;;;;;5045429;28;20075;-42
2023/07/10 02:31:10;;;;;;;4.05;1.98;;;20.50;99.90;;;;;;5045915;28;20473;-42
2023/07/10 02:33:35;;;;;;;2.97;1.92;;;20.60;99.90;;;;;;5044701;28;20040;-42
2023/07/10 02:36:02;;;;;;;3.90;2.10;;;20.50;99.90;;;;;;5043187;28;20484;-41
2023/07/10 02:38:28;;;;;;;2.80;1.90;;;20.50;99.90;;;;;;5044802;28;20021;-42
2023/07/10 02:40:54;;;;;;;4.07;2.40;;;20.60;99.90;;;;;;5041958;28;20033;-43
2023/07/10 02:43:20;;;;;;;2.17;1.73;;;20.60;99.90;;;;;;5041819;28;20070;-43
2023/07/10 02:45:45;;;;;;;4.07;2.22;;;20.60;99.90;;;;;;5046066;28;20945;-42
2023/07/10 02:48:11;;;;;;;3.78;1.90;;;20.60;99.90;;;;;;5045244;28;20029;-43
2023/07/10 02:50:37;;;;;;;2.88;2.30;;;20.50;99.90;;;;;;5044561;28;20021;-42
2023/07/10 02:53:05;;;;;;;3.22;1.90;;;20.50;99.90;;;;;;5045248;28;20044;-43
2023/07/10 02:55:31;;;;;;;4.60;2.10;;;20.50;99.90;;;;;;5056325;28;20114;-43
2023/07/10 02:57:56;;;;;;;2.08;1.90;;;20.50;99.90;;;;;;5047191;28;20063;-42
2023/07/10 03:00:22;;;;;;;4.25;2.20;;;20.50;99.90;;;;;;5041270;28;20035;-43
2023/07/10 03:02:47;;;;;;;4.72;2.25;;;20.40;99.90;;;;;;5045598;28;20036;-42
2023/07/10 03:05:13;;;;;;;3.45;1.77;;;20.40;99.90;;;;;;5044899;28;20041;-41
2023/07/10 03:07:38;;;;;;;3.83;2.42;;;20.50;99.90;;;;;;5046563;28;20171;-42
2023/07/10 03:10:06;;;;;;;3.70;2.30;;;20.50;99.90;;;;;;5045356;28;20457;-42
2023/07/10 03:12:31;;;;;;;3.33;2.13;;;20.50;99.90;;;;;;5044765;28;20016;-42
2023/07/10 03:14:57;;;;;;;4.32;2.55;;;20.50;99.90;;;;;;5045219;28;20378;-42
2023/07/10 03:17:22;;;;;;;4.00;2.05;;;20.50;99.90;;;;;;5043159;28;20580;-42
2023/07/10 03:19:49;;;;;;;4.68;1.92;;;20.50;99.90;;;;;;5045088;28;20033;-42
2023/07/10 03:22:15;;;;;;;3.72;1.90;;;20.50;99.90;;;;;;5045105;28;20049;-42
2023/07/10 03:24:41;;;;;;;3.15;1.98;;;20.40;99.90;;;;;;5044147;28;20094;-42
2023/07/10 03:27:06;;;;;;;2.65;1.90;;;20.40;99.90;;;;;;5045348;28;20385;-41
2023/07/10 03:29:32;;;;;;;4.07;2.03;;;20.50;99.90;;;;;;5044602;28;20045;-42
2023/07/10 03:31:57;;;;;;;2.65;1.90;;;20.40;99.90;;;;;;5044566;28;20037;-42
2023/07/10 03:34:23;;;;;;;2.47;1.83;;;20.40;99.90;;;;;;5045175;28;20041;-42
2023/07/10 03:36:50;;;;;;;3.55;2.10;;;20.40;99.90;;;;;;5044633;28;20040;-42
2023/07/10 03:39:16;;;;;;;3.25;2.25;;;20.40;99.90;;;;;;5044242;28;20094;-43
2023/07/10 03:41:41;;;;;;;4.72;1.90;;;20.50;99.90;;;;;;5045365;28;20021;-42
2023/07/10 03:44:13;;;;;;;2.90;1.90;;;20.50;99.90;;;;;;5045369;28;20022;-42
2023/07/10 03:46:39;;;;;;;2.35;1.90;;;20.50;99.90;;;;;;5044542;28;20025;-42
2023/07/10 03:49:07;;;;;;;2.10;1.65;;;20.50;99.90;;;;;;5044541;28;20021;-42
2023/07/10 03:51:36;;;;;;;2.60;2.00;;;20.50;99.90;;;;;;5045209;28;20025;-44
2023/07/10 03:54:01;;;;;;;2.25;2.05;;;20.40;99.90;;;;;;5043553;28;20040;-42
2023/07/10 03:56:27;;;;;;;3.50;2.22;;;20.40;99.90;;;;;;5044697;28;20025;-43
2023/07/10 03:58:52;;;;;;;3.92;2.08;;;20.30;99.90;;;;;;5044663;28;20083;-40
2023/07/10 04:01:18;;;;;;;3.55;1.90;;;20.30;99.90;;;;;;5044458;28;20740;-41
2023/07/10 04:03:44;;;;;;;3.53;2.20;;;20.30;99.90;;;;;;5044863;28;20075;-42
2023/07/10 04:06:15;;;;;;;3.00;2.00;;;20.30;99.90;;;;;;5044795;28;20108;-42
2023/07/10 04:08:44;;;;;;;3.90;2.10;;;20.20;99.90;;;;;;5043858;28;20043;-43
2023/07/10 04:11:14;;;;;;;3.00;2.28;;;20.20;99.90;;;;;;5044342;28;20033;-42
2023/07/10 04:13:40;;;;;;;3.05;2.00;;;20.20;99.90;;;;;;5043713;28;20632;-43
2023/07/10 04:16:15;;;;;;;3.75;2.10;;;20.10;99.90;;;;;;5044328;28;20021;-42
2023/07/10 04:18:42;;;;;;;2.55;2.35;;;20.10;99.90;;;;;;5044366;28;20024;-42
2023/07/10 04:21:15;;;;;;;4.97;2.95;;;20.10;99.90;;;;;;5043020;28;20461;-42
2023/07/10 04:23:41;;;;;;;2.45;1.98;;;20.10;99.90;;;;;;5044795;28;20413;-42
2023/07/10 04:26:13;;;;;;;2.85;1.83;;;20.10;99.90;;;;;;5043729;28;20480;-42
2023/07/10 04:28:38;;;;;;;;;;;20.00;99.90;;;;;;5044345;28;20029;-42
2023/07/10 04:31:04;;;;;;;2.78;1.95;;;20.00;99.90;;;;;;5044183;28;19989;-42
2023/07/10 04:33:29;;;;;;;3.63;2.17;;;20.00;99.90;;;;;;5044385;28;20036;-42
2023/07/10 04:35:58;;;;;;;3.17;2.30;;;20.00;99.90;;;;;;5043193;28;20741;-43
2023/07/10 04:38:26;;;;;;;4.18;2.10;;;20.00;99.90;;;;;;5044035;28;20029;-42
2023/07/10 04:41:01;;;;;;;3.88;2.40;;;20.10;99.90;;;;;;5047382;28;20082;-42
2023/07/10 04:43:28;;;;;;;4.22;2.20;;;20.10;99.90;;;;;;5047296;28;20373;-42
2023/07/10 04:45:55;;;;;;;3.70;2.35;;;20.10;99.90;;;;;;5047588;28;20167;-42
2023/07/10 04:48:22;;;;;;;2.90;2.42;;;20.20;99.90;;;;;;5048011;28;20036;-42
2023/07/10 04:50:50;;;;;;;4.28;2.50;;;20.20;99.90;;;;;;5046667;28;20155;-42
2023/07/10 04:53:16;;;;;;;4.07;2.20;;;20.20;99.90;;;;;;5047706;28;20032;-43
2023/07/10 04:55:46;;;;;;;3.60;2.20;;;20.20;99.90;;;;;;5047105;28;20037;-42
2023/07/10 04:58:12;;;;;;;3.20;1.90;;;20.20;99.90;;;;;;5048226;28;20091;-42
2023/07/10 05:00:37;;;;;;;3.58;1.95;;;20.20;99.90;;;;;;5047338;28;20374;-42
2023/07/10 05:03:04;;;;;;;2.88;2.15;;;20.20;99.90;;;;;;5047001;28;20025;-42
2023/07/10 05:05:33;;;;;;;3.20;1.90;;;20.20;99.90;;;;;;5047498;28;20416;-42
2023/07/10 05:07:59;;;;;;;2.58;1.70;;;20.20;99.90;;;;;;5046927;28;20044;-42
2023/07/10 05:10:25;;;;;;;5.00;2.28;;;20.20;99.90;;;;;;5047195;28;20120;-42
2023/07/10 05:12:54;;;;;;;3.08;1.70;;;20.10;99.90;;;;;;5046979;28;20655;-43
2023/07/10 05:15:20;;;;;;;3.33;1.88;;;20.00;99.90;;;;;;5047245;28;20037;-43
2023/07/10 05:17:46;;;;;;;3.20;1.88;;;20.00;99.90;;;;;;5046495;28;20017;-43
2023/07/10 05:20:13;;;;;;;2.72;1.90;;;20.00;99.90;;;;;;5047375;28;20039;-43
2023/07/10 05:22:41;;;;;;;3.00;1.83;;;20.00;99.90;;;;;;5046598;28;20477;-42
2023/07/10 05:25:07;;;;;;;2.50;1.70;;;19.90;99.90;;;;;;5026938;28;20112;-43
2023/07/10 05:27:33;;;;;;;4.05;1.80;;;19.80;99.90;;;;;;5044996;28;20048;-42
2023/07/10 05:29:59;;;;;;;3.25;1.52;;;19.80;99.90;;;;;;5044522;28;20021;-43
2023/07/10 05:32:24;;;;;;;2.58;1.50;;;19.80;99.90;;;;;;5045213;28;20052;-42
2023/07/10 05:34:50;;;;;;;2.70;1.70;;;19.80;99.90;;;;;;5046664;28;20526;-43
2023/07/10 05:37:15;;;;;;;3.35;1.67;;;19.80;99.90;;;;;;5046029;28;20555;-43
2023/07/10 05:39:41;;;;;;;2.85;1.50;;;19.80;99.90;;;;;;5045093;28;20039;-43
2023/07/10 05:42:07;;;;;;;2.30;1.58;;;19.90;99.90;;;;;;5046332;28;20111;-42
2023/07/10 05:44:33;;;;;;;2.63;1.70;;;19.90;99.90;;;;;;5045664;28;20174;-42
2023/07/10 05:46:58;;;;;;;2.75;1.70;;;20.00;99.90;;;;;;5045193;28;20024;-43
2023/07/10 05:49:24;;;;;;;2.95;1.50;;;20.00;99.90;;;;;;5047383;28;20037;-41
2023/07/10 05:51:53;;;;;;;3.17;2.15;;;20.00;99.90;;;;;;5045397;28;20040;-42
2023/07/10 05:54:20;;;;;;;4.32;2.40;;;20.10;99.90;;;;;;5042092;28;20095;-42
2023/07/10 05:56:47;;;;;;;3.90;1.92;;;20.10;99.90;;;;;;5046949;28;20025;-42
2023/07/10 05:59:14;;;;;;;3.75;1.80;;;20.10;99.90;;;;;;5044941;28;20052;-42
2023/07/10 06:01:40;;;;;;;3.15;1.70;;;20.10;99.90;;;;;;5045756;28;20660;-42
2023/07/10 06:04:06;;;;;;;1.70;1.50;;;20.10;99.90;;;;;;5045794;28;20029;-41
2023/07/10 06:06:32;;;;;;;3.25;1.42;;;20.10;99.90;;;;;;5045269;28;20387;-42
2023/07/10 06:08:57;;;;;;;4.40;2.13;;;20.20;99.90;;;;;;5043797;28;20117;-42
2023/07/10 06:11:23;;;;;;;1.50;1.25;;;20.20;99.90;;;;;;5043622;28;20041;-42
2023/07/10 06:13:49;;;;;;;3.38;1.85;;;20.20;99.90;;;;;;5044113;28;20107;-41
2023/07/10 06:16:14;;;;;;;6.35;1.92;;;20.20;99.90;;;;;;5035122;28;20041;-41
2023/07/10 06:18:41;;;;;;;2.50;1.63;;;20.30;99.90;;;;;;5035183;28;20076;-41
2023/07/10 06:21:08;;;;;;;3.17;1.40;;;20.30;99.90;;;;;;5039210;28;20107;-42
2023/07/10 06:23:34;;;;;;;3.25;1.30;;;20.30;99.90;;;;;;5032461;28;20492;-41
2023/07/10 06:26:00;;;;;;;2.35;1.65;;;20.40;99.90;;;;;;5036254;28;20044;-42
2023/07/10 06:28:28;;;;;;;2.90;1.63;;;20.40;99.90;;;;;;5030193;28;20648;-42
2023/07/10 06:30:59;;;;;;;4.80;1.60;;;20.40;99.90;;;;;;5037617;28;20037;-42
2023/07/10 06:33:26;;;;;;;4.13;1.50;;;20.40;99.90;;;;;;5029161;28;20037;-41
2023/07/10 06:35:55;;;;;;;3.50;1.25;;;20.40;99.90;;;;;;5038883;28;20033;-41
2023/07/10 06:38:21;;;;;;;2.72;1.50;;;20.50;99.90;;;;;;5026236;28;20041;-42
2023/07/10 06:40:48;;;;;;;2.35;1.20;;;20.50;99.90;;;;;;5043479;28;20017;-41
2023/07/10 06:43:14;;;;;;;4.18;1.88;;;20.50;99.90;;;;;;5044978;28;20848;-42
2023/07/10 06:45:40;;;;;;;4.43;1.50;;;20.50;99.90;;;;;;5045205;28;20024;-42
2023/07/10 06:48:06;;;;;;;4.13;1.60;;;20.50;99.90;;;;;;5045637;28;20531;-42
2023/07/10 06:50:32;;;;;;;3.03;1.17;;;20.50;99.90;;;;;;5044871;28;20127;-41
2023/07/10 06:52:57;;;;;;;2.95;1.35;;;20.50;99.90;;;;;;5029922;28;20183;-42
2023/07/10 06:55:26;;;;;;;2.60;1.15;;;20.50;99.90;;;;;;5032806;28;20095;-41
2023/07/10 06:57:51;;;;;;;4.30;1.42;;;20.50;99.90;;;;;;5035594;28;20030;-42
2023/07/10 07:00:21;;;;;;;2.60;1.30;;;20.60;99.90;;;;;;5033479;28;20025;-42
2023/07/10 07:02:46;;;;;;;3.65;1.40;;;20.60;99.90;;;;;;5043796;28;20028;-42
2023/07/10 07:05:13;;;;;;;3.97;1.35;;;20.60;99.90;;;;;;5037897;28;20024;-42
2023/07/10 07:07:39;;;;;;;3.50;1.42;;;20.70;99.90;;;;;;5037893;28;20091;-42
2023/07/10 07:10:14;;;;;;;3.22;1.20;;;20.70;99.90;;;;;;5042155;28;20029;-42
2023/07/10 07:12:43;;;;;;;3.35;1.20;;;20.70;99.90;;;;;;5045140;28;20472;-42
2023/07/10 07:15:11;;;;;;;3.50;1.15;;;20.70;99.90;;;;;;5028693;28;20421;-42
2023/07/10 07:17:37;;;;;;;3.53;1.15;;;20.80;99.90;;;;;;5044757;28;20067;-42
2023/07/10 07:20:07;;;;;;;4.00;1.30;;;20.90;99.90;;;;;;5044162;28;20556;-42
2023/07/10 07:22:32;;;;;;;3.55;1.38;;;20.90;99.90;;;;;;5032230;28;20381;-42
2023/07/10 07:24:58;;;;;;;2.58;1.08;;;21.00;99.90;;;;;;5026280;28;20488;-42
2023/07/10 07:27:24;;;;;;;1.77;0.88;;;21.00;99.90;;;;;;5040443;28;20045;-41
2023/07/10 07:29:51;;;;;;;6.90;1.30;;;21.00;99.90;;;;;;5042998;28;20033;-41
2023/07/10 07:32:25;;;;;;;4.10;1.20;;;21.10;99.90;;;;;;5044011;28;20090;-42
2023/07/10 07:34:51;;;;;;;2.30;1.05;;;21.10;99.90;;;;;;5029575;28;20492;-42
2023/07/10 07:37:17;;;;;;;1.95;0.98;;;21.10;99.90;;;;;;5042562;28;20120;-42
2023/07/10 07:39:43;;;;;;;2.50;1.10;;;21.20;99.90;;;;;;5043372;28;20465;-42
2023/07/10 07:42:09;;;;;;;5.75;1.50;;;21.20;99.90;;;;;;5040753;28;20025;-42
2023/07/10 07:44:35;;;;;;;3.97;1.05;;;21.30;99.90;;;;;;5043924;28;20048;-43
2023/07/10 07:47:00;;;;;;;3.33;1.20;;;21.30;99.90;;;;;;5041264;28;20049;-42
2023/07/10 07:49:26;;;;;;;4.13;1.60;;;21.30;99.90;;;;;;5045485;28;20036;-43
2023/07/10 07:51:52;;;;;;;4.25;1.48;;;21.30;99.90;;;;;;5044354;28;20029;-43
2023/07/10 07:54:18;;;;;;;2.42;1.05;;;21.30;99.90;;;;;;5045086;28;20040;-42
2023/07/10 07:56:44;;;;;;;5.07;1.60;;;21.40;99.90;;;;;;5045020;28;20021;-42
2023/07/10 07:59:10;;;;;;;3.60;1.40;;;21.40;99.90;;;;;;5044333;28;20044;-42
2023/07/10 08:01:35;;;;;;;1.75;1.17;;;21.50;99.90;;;;;;5044942;28;20016;-42
2023/07/10 08:04:05;;;;;;;2.50;1.23;;;21.50;99.90;;;;;;5044350;28;20762;-43
2023/07/10 08:06:33;;;;;;;2.78;0.98;;;21.50;99.90;;;;;;5044141;28;20175;-42
2023/07/10 08:09:00;;;;;;;4.38;1.42;;;21.60;99.90;;;;;;5044822;28;20698;-43
2023/07/10 08:11:26;;;;;;;2.42;1.45;;;21.60;99.90;;;;;;5038803;28;20030;-42
2023/07/10 08:13:52;;;;;;;2.38;1.05;;;21.60;99.90;;;;;;5036966;28;20506;-42
2023/07/10 08:16:19;;;;;;;3.75;1.45;;;21.70;99.90;;;;;;5043189;28;20111;-42
2023/07/10 08:18:45;;;;;;;5.03;1.55;;;21.80;99.90;;;;;;5039679;28;20072;-43
2023/07/10 08:21:12;;;;;;;3.65;1.40;;;21.80;99.90;;;;;;5039807;28;20466;-42
2023/07/10 08:23:38;;;;;;;2.67;1.10;;;21.80;99.90;;;;;;5043755;28;20033;-43
2023/07/10 08:26:05;;;;;;;3.40;1.10;;;21.80;99.90;;;;;;5033788;28;20382;-43
2023/07/10 08:28:31;;;;;;;2.25;1.00;;;21.90;99.90;;;;;;5040475;28;20036;-42
2023/07/10 08:30:56;;;;;;;5.72;1.65;;;22.00;99.90;;;;;;5036660;28;20029;-43
2023/07/10 08:33:22;;;;;;;4.65;1.50;;;22.00;99.90;;;;;;5038717;28;20028;-42
2023/07/10 08:36:01;;;;;;;5.15;1.40;;;22.00;99.90;;;;;;5047294;28;20036;-42
2023/07/10 08:38:26;;;;;;;3.95;1.40;;;22.00;99.90;;;;;;5048187;28;20025;-43
2023/07/10 08:40:57;;;;;;;2.85;1.20;;;22.00;99.90;;;;;;5042036;28;20032;-42
2023/07/10 08:43:28;;;;;;;4.22;1.38;;;22.00;99.90;;;;;;5042882;28;20405;-42
2023/07/10 08:46:12;;;;;;;2.95;1.33;;;22.10;99.90;;;;;;5039162;28;20059;-42
2023/07/10 08:48:45;;;;;;;3.45;1.10;;;22.00;99.90;;;;;;5040349;28;20058;-42
2023/07/10 08:51:19;;;;;;;;;;;22.10;99.90;;;;;;5046956;28;20024;-42
2023/07/10 08:53:57;;;;;;;4.85;1.42;;;22.10;99.90;;;;;;5042203;28;20375;-42
2023/07/10 08:56:37;;;;;;;4.75;1.40;;;22.20;99.90;;;;;;5041649;28;20025;-41
2023/07/10 08:59:41;;;;;;;4.88;1.70;;;22.20;99.90;;;;;;5037009;28;20112;-42
2023/07/10 09:02:16;;;;;;;4.78;1.63;;;22.20;99.90;;;;;;5034493;28;20348;-41
2023/07/10 09:04:46;;;;;;;2.72;1.40;;;22.30;99.90;;;;;;5045750;28;20040;-41
2023/07/10 09:07:13;;;;;;;3.10;1.15;;;22.30;99.90;;;;;;5046525;28;20099;-42
2023/07/10 09:09:43;;;;;;;2.22;1.13;;;22.50;99.90;;;;;;5046246;28;20023;-42
2023/07/10 09:12:15;;;;;;;3.03;1.30;;;22.60;99.90;;;;;;5044773;28;20029;-42
2023/07/10 09:14:50;;;;;;;3.97;1.33;;;22.70;99.90;;;;;;5040386;28;20075;-42
2023/07/10 09:17:22;;;;;;;3.60;1.20;;;22.70;99.90;;;;;;5029968;28;20057;-41
2023/07/10 09:19:53;;;;;;;4.03;1.15;;;22.80;99.90;;;;;;5036859;28;20021;-42
2023/07/10 09:22:20;;;;;;;3.43;1.43;;;22.80;99.90;;;;;;5043628;28;20035;-42
2023/07/10 09:24:46;;;;;;;4.30;1.70;;;22.80;99.90;;;;;;5046275;28;20048;-41
2023/07/10 09:27:13;;;;;;;3.28;1.65;;;22.80;99.90;;;;;;5038253;28;20025;-42
2023/07/10 09:29:40;;;;;;;4.00;1.55;;;22.80;99.90;;;;;;5032370;28;20028;-41
2023/07/10 09:32:18;;;;;;;3.38;1.40;;;22.80;99.90;;;;;;5045967;28;20079;-42
2023/07/10 09:34:57;;;;;;;5.47;1.60;;;22.90;99.90;;;;;;5036005;28;20154;-42
2023/07/10 09:37:33;;;;;;;4.53;1.63;;;23.00;99.90;;;;;;5044316;28;20326;-42
2023/07/10 09:40:20;;;;;;;4.78;1.40;;;23.10;99.90;;;;;;5046639;28;20927;-42
2023/07/10 09:42:46;;;;;;;3.38;1.27;;;23.30;99.90;;;;;;5041502;28;20111;-43
2023/07/10 09:45:15;;;;;;;3.28;1.40;;;23.40;99.90;;;;;;5042316;28;20048;-42
2023/07/10 09:47:44;;;;;;;3.47;1.58;;;23.50;99.90;;;;;;5046660;28;20025;-42
2023/07/10 09:50:18;;;;;;;2.88;1.40;;;23.60;99.90;;;;;;5046540;28;20223;-42
2023/07/10 09:52:51;;;;;;;2.97;1.23;;;23.70;99.90;;;;;;5035719;28;20377;-43
2023/07/10 09:55:17;;;;;;;2.72;1.20;;;23.70;99.90;;;;;;5046576;28;20394;-43
2023/07/10 09:58:02;;;;;;;3.65;1.42;;;23.90;99.90;;;;;;5046967;28;20341;-42
2023/07/10 10:00:29;;;;;;;2.25;1.40;;;23.90;99.90;;;;;;5046244;28;20052;-42
2023/07/10 10:03:07;;;;;;;3.92;1.77;;;24.00;99.90;;;;;;5046225;28;20021;-41
2023/07/10 10:05:33;;;;;;;3.40;1.65;;;24.00;99.90;;;;;;5046068;28;20029;-44
2023/07/10 10:08:10;;;;;;;3.00;1.15;;;24.00;99.90;;;;;;5045706;28;20051;-41
2023/07/10 10:10:38;;;;;;;6.15;1.58;;;23.90;99.90;;;;;;5046373;28;20095;-42
2023/07/10 10:13:24;;;;;;;4.95;1.30;;;23.90;99.90;;;;;;5043616;28;20059;-42
2023/07/10 10:16:16;;;;;;;3.45;1.40;;;24.00;99.90;;;;;;5040767;28;20373;-43
2023/07/10 10:18:48;;;;;;;4.55;1.42;;;24.10;99.90;;;;;;5034330;28;20038;-42
2023/07/10 10:21:16;;;;;;;3.42;1.30;;;24.10;99.90;;;;;;5030927;28;20032;-42
2023/07/10 10:23:45;;;;;;;2.42;1.40;;;24.20;99.90;;;;;;5046061;28;20024;-42
2023/07/10 10:26:30;;;;;;;3.00;1.50;;;24.30;99.90;;;;;;5038956;28;20112;-42
2023/07/10 10:29:06;;;;;;;3.40;1.38;;;24.40;99.90;;;;;;5044323;28;20037;-42
2023/07/10 10:31:56;;;;;;;1.75;0.93;;;24.50;99.90;;;;;;5034244;28;20095;-42
2023/07/10 10:34:29;;;;;;;7.57;1.50;;;24.50;99.90;;;;;;5022402;28;20059;-42
2023/07/10 10:37:46;;;;;;;2.85;1.05;;;24.50;99.90;;;;;;5031379;28;20110;-43
2023/07/10 10:40:28;;;;;;;3.03;1.40;;;24.50;99.90;;;;;;5013381;28;20493;-43
2023/07/10 10:43:10;;;;;;;4.25;1.00;;;24.50;99.90;;;;;;5038672;28;20082;-43
2023/07/10 10:46:14;;;;;;;3.30;1.38;;;24.50;99.90;;;;;;5033812;28;20035;-42
2023/07/10 10:48:54;;;;;;;3.10;1.17;;;24.50;99.90;;;;;;5040263;28;20068;-42
2023/07/10 10:51:28;;;;;;;2.67;1.40;;;24.40;99.60;;;;;;5038760;28;20025;-43
2023/07/10 10:54:09;;;;;;;2.67;1.27;;;24.40;99.90;;;;;;5045047;28;20036;-43
2023/07/10 10:56:43;;;;;;;4.40;1.60;;;24.30;99.90;;;;;;5025551;28;20026;-42
2023/07/10 10:59:46;;;;;;;3.92;1.58;;;24.40;99.90;;;;;;5041844;28;20048;-42
2023/07/10 11:02:47;;;;;;;3.40;1.20;;;24.40;99.90;;;;;;5026573;28;20125;-41
2023/07/10 11:05:20;;;;;;;4.75;1.48;;;24.40;99.80;;;;;;5033691;28;20481;-42
2023/07/10 11:07:54;;;;;;;6.53;1.85;;;24.40;99.30;;;;;;5042152;28;20655;-42
2023/07/10 11:10:38;;;;;;;3.25;1.33;;;24.40;99.30;;;;;;5029945;28;20037;-42
2023/07/10 11:13:05;;;;;;;3.05;1.10;;;24.40;99.20;;;;;;5030248;28;20845;-42
2023/07/10 11:15:32;;;;;;;3.22;1.30;;;24.60;98.90;;;;;;5044129;28;20037;-42
2023/07/10 11:17:59;;;;;;;2.13;1.20;;;24.70;98.70;;;;;;5039800;28;20111;-42
2023/07/10 11:20:29;;;;;;;3.13;1.20;;;24.70;98.70;;;;;;5046199;28;20037;-41
2023/07/10 11:22:57;;;;;;;3.67;1.33;;;24.90;98.70;;;;;;5044102;28;20115;-42
2023/07/10 11:25:43;;;;;;;4.53;1.38;;;24.90;98.50;;;;;;5041570;28;20021;-43
2023/07/10 11:28:25;;;;;;;5.45;1.67;;;24.90;97.90;;;;;;5040502;28;20025;-43
2023/07/10 11:31:23;;;;;;;2.13;0.93;;;24.80;97.90;;;;;;5043168;28;20112;-43
2023/07/10 11:33:52;;;;;;;3.33;1.40;;;24.70;97.90;;;;;;5039107;28;20037;-43
2023/07/10 11:36:38;;;;;;;3.33;1.40;;;24.70;98.10;;;;;;5044288;28;20036;-42
2023/07/10 11:39:09;;;;;;;4.55;1.20;;;24.80;97.80;;;;;;5052238;28;20136;-42
2023/07/10 11:41:46;;;;;;;2.33;1.08;;;24.90;97.70;;;;;;5046486;28;20735;-41
2023/07/10 11:44:23;;;;;;;4.60;1.15;;;25.00;97.80;;;;;;5044905;28;20076;-42
2023/07/10 11:46:59;;;;;;;2.78;1.30;;;25.10;97.80;;;;;;5043987;28;21055;-41
2023/07/10 11:49:27;;;;;;;6.15;1.77;;;25.20;97.80;;;;;;5057991;28;20029;-42
2023/07/10 11:52:08;;;;;;;3.55;1.10;;;25.20;97.60;;;;;;5060787;28;20494;-42
2023/07/10 11:54:33;;;;;;;3.88;1.25;;;25.20;97.40;;;;;;5042107;28;20036;-41
2023/07/10 11:57:10;;;;;;;3.38;1.05;;;25.20;97.10;;;;;;5046891;28;20443;-41
2023/07/10 11:59:38;;;;;;;4.03;1.45;;;25.10;97.30;;;;;;5047545;28;20017;-42
2023/07/10 12:02:33;;;;;;;4.95;1.52;;;25.00;97.10;;;;;;5040832;28;20579;-42
2023/07/10 12:05:15;;;;;;;3.90;1.40;;;24.90;97.30;;;;;;5045459;28;20017;-42
2023/07/10 12:07:51;;;;;;;;;;;25.00;97.10;;;;;;5048720;28;20057;-42
2023/07/10 12:10:17;;;;;;;3.53;1.20;;;25.00;96.60;;;;;;5043538;28;20473;-42
2023/07/10 12:12:43;;;;;;;5.20;1.60;;;25.00;96.60;;;;;;5044056;28;20024;-41
2023/07/10 12:15:10;;;;;;;5.35;1.85;;;24.90;96.00;;;;;;5040940;28;20047;-42
2023/07/10 12:17:38;;;;;;;3.25;1.55;;;24.80;95.40;;;;;;5042921;28;20063;-42
2023/07/10 12:20:20;;;;;;;3.85;1.23;;;24.80;95.50;;;;;;5046932;28;20420;-42
2023/07/10 12:22:51;;;;;;;3.33;1.30;;;24.90;95.90;;;;;;5037320;28;20029;-43
2023/07/10 12:25:17;;;;;;;2.55;1.13;;;25.00;96.00;;;;;;5036028;28;20052;-43
2023/07/10 12:27:44;;;;;;;3.38;1.20;;;25.30;96.10;;;;;;5042387;28;20118;-43
2023/07/10 12:30:31;;;;;;;5.05;1.30;;;25.50;96.00;;;;;;5035164;28;20033;-43
2023/07/10 12:32:57;;;;;;;2.70;1.17;;;25.70;96.10;;;;;;5042973;28;20493;-42
2023/07/10 12:35:29;;;;;;;7.05;1.40;;;25.90;95.60;;;;;;5046350;28;20182;-43
2023/07/10 12:37:55;;;;;;;;;;;25.90;95.60;;;;;;5045857;28;20093;-42
2023/07/10 12:40:21;;;;;;;3.22;1.10;;;26.00;95.50;;;;;;5034705;28;19917;-41
2023/07/10 12:42:47;;;;;;;3.45;1.30;;;26.10;95.50;;;;;;5047390;28;20036;-42
2023/07/10 12:45:32;;;;;;;3.15;0.98;;;26.20;95.30;;;;;;5047470;28;20457;-41
2023/07/10 12:48:12;;;;;;;3.67;1.08;;;26.40;95.20;;;;;;5047604;28;20550;-41
2023/07/10 12:50:44;;;;;;;3.47;1.15;;;26.50;95.00;;;;;;5048159;28;20036;-43
2023/07/10 12:53:20;;;;;;;;;;;26.60;94.70;;;;;;5047184;28;20949;-43
2023/07/10 12:55:47;;;;;;;5.07;1.20;;;26.50;94.00;;;;;;5047326;28;19917;-43
2023/07/10 12:58:17;;;;;;;3.00;1.10;;;26.40;94.20;;;;;;5047318;28;20017;-43
2023/07/10 13:00:48;;;;;;;2.90;1.10;;;26.20;94.40;;;;;;5047670;28;20060;-43
2023/07/10 13:03:39;;;;;;;5.32;1.02;;;26.10;94.60;;;;;;5046506;28;20550;-42